Terminal Aerodrome Forecast
Issued by NWS

Current Version | Previous Version | Text Only | Print | Product List | Glossary On
Versions: 1 2 3 4 5 6 7 8 9 10 11 12 13 14 15
586
FTUS45 KVEF 210216 AAA
TAFHND
TAF AMD
KHND 210216Z 2102/2124 19015G23KT P6SM VCSH SCT030 OVC050
     FM210400 20020G28KT P6SM VCSH FEW020 BKN050
     FM210800 21020G28KT P6SM BKN100
     FM211800 24010KT P6SM SCT250=

USA.gov is the U.S. government's official web portal to all federal, state and local government web resources and services.